sensor_id;sensor_type;location;lat;lon;timestamp;P1;durP1;ratioP1;P2;durP2;ratioP2
42478;SDS011;28110;47.080;9.476;2022-12-18T00:01:49;2.20;;;1.25;;
42478;SDS011;28110;47.080;9.476;2022-12-18T00:04:18;2.27;;;1.23;;
42478;SDS011;28110;47.080;9.476;2022-12-18T00:06:46;3.70;;;1.30;;
42478;SDS011;28110;47.080;9.476;2022-12-18T00:09:11;2.93;;;1.00;;
42478;SDS011;28110;47.080;9.476;2022-12-18T00:11:37;2.10;;;1.13;;
42478;SDS011;28110;47.080;9.476;2022-12-18T00:14:03;4.03;;;1.30;;
42478;SDS011;28110;47.080;9.476;2022-12-18T00:16:28;3.43;;;1.10;;
42478;SDS011;28110;47.080;9.476;2022-12-18T00:19:00;2.30;;;1.30;;
42478;SDS011;28110;47.080;9.476;2022-12-18T00:21:26;2.80;;;1.23;;
42478;SDS011;28110;47.080;9.476;2022-12-18T00:23:53;4.30;;;1.13;;
42478;SDS011;28110;47.080;9.476;2022-12-18T00:26:20;2.67;;;1.10;;
42478;SDS011;28110;47.080;9.476;2022-12-18T00:28:49;3.28;;;1.05;;
42478;SDS011;28110;47.080;9.476;2022-12-18T00:31:16;2.90;;;1.20;;
42478;SDS011;28110;47.080;9.476;2022-12-18T00:33:44;2.38;;;1.20;;
42478;SDS011;28110;47.080;9.476;2022-12-18T00:36:11;2.87;;;1.20;;
42478;SDS011;28110;47.080;9.476;2022-12-18T00:38:38;2.40;;;1.15;;
42478;SDS011;28110;47.080;9.476;2022-12-18T00:41:04;1.80;;;1.20;;
42478;SDS011;28110;47.080;9.476;2022-12-18T00:43:30;3.53;;;1.10;;
42478;SDS011;28110;47.080;9.476;2022-12-18T00:45:59;3.08;;;1.40;;
42478;SDS011;28110;47.080;9.476;2022-12-18T00:48:25;2.57;;;1.03;;
42478;SDS011;28110;47.080;9.476;2022-12-18T00:50:50;1.90;;;1.10;;
42478;SDS011;28110;47.080;9.476;2022-12-18T00:53:16;2.60;;;1.30;;
42478;SDS011;28110;47.080;9.476;2022-12-18T00:55:43;4.80;;;1.45;;
42478;SDS011;28110;47.080;9.476;2022-12-18T00:58:09;3.47;;;1.40;;
42478;SDS011;28110;47.080;9.476;2022-12-18T01:00:36;2.92;;;1.35;;
42478;SDS011;28110;47.080;9.476;2022-12-18T01:03:03;1.97;;;1.20;;
42478;SDS011;28110;47.080;9.476;2022-12-18T01:05:29;4.57;;;1.35;;
42478;SDS011;28110;47.080;9.476;2022-12-18T01:07:54;4.50;;;1.10;;
42478;SDS011;28110;47.080;9.476;2022-12-18T01:10:21;2.07;;;0.97;;
42478;SDS011;28110;47.080;9.476;2022-12-18T01:12:46;3.33;;;1.20;;
42478;SDS011;28110;47.080;9.476;2022-12-18T01:15:13;2.07;;;1.07;;
42478;SDS011;28110;47.080;9.476;2022-12-18T01:17:39;2.72;;;1.20;;
42478;SDS011;28110;47.080;9.476;2022-12-18T01:20:05;3.60;;;1.38;;
42478;SDS011;28110;47.080;9.476;2022-12-18T01:22:31;3.93;;;1.23;;
42478;SDS011;28110;47.080;9.476;2022-12-18T01:24:57;3.63;;;1.10;;
42478;SDS011;28110;47.080;9.476;2022-12-18T01:27:22;1.77;;;1.20;;
42478;SDS011;28110;47.080;9.476;2022-12-18T01:29:48;1.90;;;1.00;;
42478;SDS011;28110;47.080;9.476;2022-12-18T01:32:14;2.67;;;1.40;;
42478;SDS011;28110;47.080;9.476;2022-12-18T01:34:40;2.93;;;1.20;;
42478;SDS011;28110;47.080;9.476;2022-12-18T01:37:05;2.45;;;1.10;;
42478;SDS011;28110;47.080;9.476;2022-12-18T01:39:31;2.50;;;1.30;;
42478;SDS011;28110;47.080;9.476;2022-12-18T01:41:57;3.30;;;0.93;;
42478;SDS011;28110;47.080;9.476;2022-12-18T01:47:12;3.43;;;1.10;;
42478;SDS011;28110;47.080;9.476;2022-12-18T01:49:50;2.08;;;0.90;;
42478;SDS011;28110;47.080;9.476;2022-12-18T01:52:16;5.75;;;1.13;;
42478;SDS011;28110;47.080;9.476;2022-12-18T01:54:43;2.55;;;0.95;;
42478;SDS011;28110;47.080;9.476;2022-12-18T01:57:10;2.25;;;1.13;;
42478;SDS011;28110;47.080;9.476;2022-12-18T01:59:36;2.23;;;0.90;;
42478;SDS011;28110;47.080;9.476;2022-12-18T02:02:03;3.60;;;1.30;;
42478;SDS011;28110;47.080;9.476;2022-12-18T02:04:29;6.53;;;1.52;;
42478;SDS011;28110;47.080;9.476;2022-12-18T02:06:57;2.28;;;0.98;;
42478;SDS011;28110;47.080;9.476;2022-12-18T02:09:40;2.15;;;1.10;;
42478;SDS011;28110;47.080;9.476;2022-12-18T02:12:19;1.70;;;0.80;;
42478;SDS011;28110;47.080;9.476;2022-12-18T02:17:45;1.40;;;0.70;;
42478;SDS011;28110;47.080;9.476;2022-12-18T02:23:21;1.88;;;0.73;;
42478;SDS011;28110;47.080;9.476;2022-12-18T02:26:12;1.60;;;0.75;;
42478;SDS011;28110;47.080;9.476;2022-12-18T02:28:49;2.83;;;0.70;;
42478;SDS011;28110;47.080;9.476;2022-12-18T02:31:23;2.30;;;0.90;;
42478;SDS011;28110;47.080;9.476;2022-12-18T02:33:51;1.33;;;0.70;;
42478;SDS011;28110;47.080;9.476;2022-12-18T02:36:20;1.40;;;0.70;;
42478;SDS011;28110;47.080;9.476;2022-12-18T02:38:47;1.65;;;0.93;;
42478;SDS011;28110;47.080;9.476;2022-12-18T02:41:15;1.27;;;0.70;;
42478;SDS011;28110;47.080;9.476;2022-12-18T02:43:45;1.38;;;0.60;;
42478;SDS011;28110;47.080;9.476;2022-12-18T02:46:22;1.35;;;0.82;;
42478;SDS011;28110;47.080;9.476;2022-12-18T02:48:50;2.88;;;0.73;;
42478;SDS011;28110;47.080;9.476;2022-12-18T02:51:22;1.80;;;0.70;;
42478;SDS011;28110;47.080;9.476;2022-12-18T02:54:06;1.60;;;0.83;;
42478;SDS011;28110;47.080;9.476;2022-12-18T02:56:51;3.38;;;0.80;;
42478;SDS011;28110;47.080;9.476;2022-12-18T02:59:54;1.35;;;0.77;;
42478;SDS011;28110;47.080;9.476;2022-12-18T03:02:27;2.00;;;0.90;;
42478;SDS011;28110;47.080;9.476;2022-12-18T03:05:13;1.73;;;0.85;;
42478;SDS011;28110;47.080;9.476;2022-12-18T03:07:50;1.33;;;0.90;;
42478;SDS011;28110;47.080;9.476;2022-12-18T03:10:37;1.20;;;0.68;;
42478;SDS011;28110;47.080;9.476;2022-12-18T03:13:08;1.23;;;0.85;;
42478;SDS011;28110;47.080;9.476;2022-12-18T03:15:39;2.30;;;0.75;;
42478;SDS011;28110;47.080;9.476;2022-12-18T03:18:12;1.17;;;0.73;;
42478;SDS011;28110;47.080;9.476;2022-12-18T03:20:50;1.87;;;0.77;;
42478;SDS011;28110;47.080;9.476;2022-12-18T03:23:21;1.63;;;0.77;;
42478;SDS011;28110;47.080;9.476;2022-12-18T03:25:51;2.15;;;0.95;;
42478;SDS011;28110;47.080;9.476;2022-12-18T03:28:21;1.55;;;0.60;;
42478;SDS011;28110;47.080;9.476;2022-12-18T03:30:47;1.88;;;1.00;;
42478;SDS011;28110;47.080;9.476;2022-12-18T03:33:18;2.43;;;0.80;;
42478;SDS011;28110;47.080;9.476;2022-12-18T03:35:49;1.30;;;0.60;;
42478;SDS011;28110;47.080;9.476;2022-12-18T03:38:15;1.75;;;0.50;;
42478;SDS011;28110;47.080;9.476;2022-12-18T03:40:43;1.70;;;0.73;;
42478;SDS011;28110;47.080;9.476;2022-12-18T03:43:35;1.37;;;0.70;;
42478;SDS011;28110;47.080;9.476;2022-12-18T03:46:28;1.58;;;0.82;;
42478;SDS011;28110;47.080;9.476;2022-12-18T03:49:02;1.73;;;0.65;;
42478;SDS011;28110;47.080;9.476;2022-12-18T03:51:40;2.40;;;0.85;;
42478;SDS011;28110;47.080;9.476;2022-12-18T03:54:18;2.72;;;1.02;;
42478;SDS011;28110;47.080;9.476;2022-12-18T03:56:46;1.47;;;0.60;;
42478;SDS011;28110;47.080;9.476;2022-12-18T03:59:15;2.05;;;0.77;;
42478;SDS011;28110;47.080;9.476;2022-12-18T04:01:47;1.50;;;0.75;;
42478;SDS011;28110;47.080;9.476;2022-12-18T04:04:16;1.63;;;0.55;;
42478;SDS011;28110;47.080;9.476;2022-12-18T04:06:43;3.33;;;0.60;;
42478;SDS011;28110;47.080;9.476;2022-12-18T04:09:11;0.80;;;0.50;;
42478;SDS011;28110;47.080;9.476;2022-12-18T04:11:37;1.10;;;0.63;;
42478;SDS011;28110;47.080;9.476;2022-12-18T04:14:04;1.20;;;0.70;;
42478;SDS011;28110;47.080;9.476;2022-12-18T04:16:30;1.00;;;0.60;;
42478;SDS011;28110;47.080;9.476;2022-12-18T04:18:55;5.32;;;0.50;;
42478;SDS011;28110;47.080;9.476;2022-12-18T04:21:21;1.47;;;0.77;;
42478;SDS011;28110;47.080;9.476;2022-12-18T04:23:47;0.80;;;0.50;;
42478;SDS011;28110;47.080;9.476;2022-12-18T04:26:13;1.77;;;0.63;;
42478;SDS011;28110;47.080;9.476;2022-12-18T04:28:39;1.67;;;0.77;;
42478;SDS011;28110;47.080;9.476;2022-12-18T04:31:04;1.40;;;0.60;;
42478;SDS011;28110;47.080;9.476;2022-12-18T04:33:30;1.38;;;0.50;;
42478;SDS011;28110;47.080;9.476;2022-12-18T04:35:55;1.02;;;0.55;;
42478;SDS011;28110;47.080;9.476;2022-12-18T04:38:21;1.50;;;0.57;;
42478;SDS011;28110;47.080;9.476;2022-12-18T04:40:46;1.67;;;0.60;;
42478;SDS011;28110;47.080;9.476;2022-12-18T04:43:12;1.33;;;0.65;;
42478;SDS011;28110;47.080;9.476;2022-12-18T04:45:37;2.53;;;0.67;;
42478;SDS011;28110;47.080;9.476;2022-12-18T04:48:03;1.73;;;0.77;;
42478;SDS011;28110;47.080;9.476;2022-12-18T04:50:29;0.60;;;0.32;;
42478;SDS011;28110;47.080;9.476;2022-12-18T04:52:55;1.02;;;0.50;;
42478;SDS011;28110;47.080;9.476;2022-12-18T04:55:21;0.80;;;0.50;;
42478;SDS011;28110;47.080;9.476;2022-12-18T04:57:47;0.73;;;0.40;;
42478;SDS011;28110;47.080;9.476;2022-12-18T05:00:12;1.23;;;0.50;;
42478;SDS011;28110;47.080;9.476;2022-12-18T05:02:38;2.35;;;0.40;;
42478;SDS011;28110;47.080;9.476;2022-12-18T05:05:04;1.20;;;0.50;;
42478;SDS011;28110;47.080;9.476;2022-12-18T05:07:30;0.97;;;0.60;;
42478;SDS011;28110;47.080;9.476;2022-12-18T05:09:55;1.45;;;0.65;;
42478;SDS011;28110;47.080;9.476;2022-12-18T05:12:21;1.17;;;0.50;;
42478;SDS011;28110;47.080;9.476;2022-12-18T05:14:46;1.23;;;0.63;;
42478;SDS011;28110;47.080;9.476;2022-12-18T05:17:12;1.10;;;0.65;;
42478;SDS011;28110;47.080;9.476;2022-12-18T05:19:37;1.47;;;0.53;;
42478;SDS011;28110;47.080;9.476;2022-12-18T05:22:03;1.40;;;0.67;;
42478;SDS011;28110;47.080;9.476;2022-12-18T05:24:29;1.40;;;0.70;;
42478;SDS011;28110;47.080;9.476;2022-12-18T05:26:54;1.40;;;0.73;;
42478;SDS011;28110;47.080;9.476;2022-12-18T05:29:20;1.80;;;0.70;;
42478;SDS011;28110;47.080;9.476;2022-12-18T05:31:45;1.27;;;0.70;;
42478;SDS011;28110;47.080;9.476;2022-12-18T05:34:11;4.50;;;0.70;;
42478;SDS011;28110;47.080;9.476;2022-12-18T05:36:36;1.20;;;0.40;;
42478;SDS011;28110;47.080;9.476;2022-12-18T05:39:02;1.33;;;0.50;;
42478;SDS011;28110;47.080;9.476;2022-12-18T05:41:28;2.57;;;0.60;;
42478;SDS011;28110;47.080;9.476;2022-12-18T05:43:54;1.17;;;0.40;;
42478;SDS011;28110;47.080;9.476;2022-12-18T05:46:19;0.80;;;0.33;;
42478;SDS011;28110;47.080;9.476;2022-12-18T05:48:45;1.30;;;0.50;;
42478;SDS011;28110;47.080;9.476;2022-12-18T05:51:13;1.40;;;0.70;;
42478;SDS011;28110;47.080;9.476;2022-12-18T05:53:40;0.90;;;0.40;;
42478;SDS011;28110;47.080;9.476;2022-12-18T05:56:08;1.98;;;0.50;;
42478;SDS011;28110;47.080;9.476;2022-12-18T05:58:36;2.03;;;0.57;;
42478;SDS011;28110;47.080;9.476;2022-12-18T06:01:06;1.10;;;0.50;;
42478;SDS011;28110;47.080;9.476;2022-12-18T06:03:42;1.30;;;0.70;;
42478;SDS011;28110;47.080;9.476;2022-12-18T06:06:18;1.20;;;0.50;;
42478;SDS011;28110;47.080;9.476;2022-12-18T06:08:45;1.40;;;0.60;;
42478;SDS011;28110;47.080;9.476;2022-12-18T06:11:11;0.98;;;0.30;;
42478;SDS011;28110;47.080;9.476;2022-12-18T06:13:37;2.67;;;0.73;;
42478;SDS011;28110;47.080;9.476;2022-12-18T06:16:04;1.25;;;0.80;;
42478;SDS011;28110;47.080;9.476;2022-12-18T06:18:30;1.15;;;0.70;;
42478;SDS011;28110;47.080;9.476;2022-12-18T06:20:56;2.50;;;0.80;;
42478;SDS011;28110;47.080;9.476;2022-12-18T06:23:23;1.02;;;0.50;;
42478;SDS011;28110;47.080;9.476;2022-12-18T06:25:48;0.88;;;0.55;;
42478;SDS011;28110;47.080;9.476;2022-12-18T06:28:14;2.47;;;1.47;;
42478;SDS011;28110;47.080;9.476;2022-12-18T06:30:40;0.87;;;0.60;;
42478;SDS011;28110;47.080;9.476;2022-12-18T06:33:08;1.15;;;0.50;;
42478;SDS011;28110;47.080;9.476;2022-12-18T06:35:33;1.40;;;0.50;;
42478;SDS011;28110;47.080;9.476;2022-12-18T06:38:00;1.17;;;0.43;;
42478;SDS011;28110;47.080;9.476;2022-12-18T06:40:27;0.88;;;0.50;;
42478;SDS011;28110;47.080;9.476;2022-12-18T06:42:52;1.30;;;0.50;;
42478;SDS011;28110;47.080;9.476;2022-12-18T06:45:18;0.43;;;0.40;;
42478;SDS011;28110;47.080;9.476;2022-12-18T06:47:43;1.50;;;0.80;;
42478;SDS011;28110;47.080;9.476;2022-12-18T06:50:09;2.63;;;0.80;;
42478;SDS011;28110;47.080;9.476;2022-12-18T06:52:35;0.43;;;0.38;;
42478;SDS011;28110;47.080;9.476;2022-12-18T06:55:01;0.50;;;0.40;;
42478;SDS011;28110;47.080;9.476;2022-12-18T06:57:27;0.97;;;0.40;;
42478;SDS011;28110;47.080;9.476;2022-12-18T06:59:52;1.30;;;0.50;;
42478;SDS011;28110;47.080;9.476;2022-12-18T07:02:18;0.90;;;0.35;;
42478;SDS011;28110;47.080;9.476;2022-12-18T07:04:43;1.40;;;0.80;;
42478;SDS011;28110;47.080;9.476;2022-12-18T07:07:09;0.63;;;0.40;;
42478;SDS011;28110;47.080;9.476;2022-12-18T07:09:34;1.98;;;0.52;;
42478;SDS011;28110;47.080;9.476;2022-12-18T07:12:00;1.27;;;0.40;;
42478;SDS011;28110;47.080;9.476;2022-12-18T07:14:26;2.30;;;0.70;;
42478;SDS011;28110;47.080;9.476;2022-12-18T07:16:51;2.53;;;0.98;;
42478;SDS011;28110;47.080;9.476;2022-12-18T07:19:17;2.73;;;0.83;;
42478;SDS011;28110;47.080;9.476;2022-12-18T07:21:42;2.20;;;0.90;;
42478;SDS011;28110;47.080;9.476;2022-12-18T07:24:08;2.67;;;0.63;;
42478;SDS011;28110;47.080;9.476;2022-12-18T07:26:33;2.13;;;0.40;;
42478;SDS011;28110;47.080;9.476;2022-12-18T07:28:59;2.00;;;0.70;;
42478;SDS011;28110;47.080;9.476;2022-12-18T07:31:25;1.35;;;0.40;;
42478;SDS011;28110;47.080;9.476;2022-12-18T07:33:51;0.70;;;0.50;;
42478;SDS011;28110;47.080;9.476;2022-12-18T07:36:17;1.02;;;0.50;;
42478;SDS011;28110;47.080;9.476;2022-12-18T07:38:45;1.02;;;0.38;;
42478;SDS011;28110;47.080;9.476;2022-12-18T07:41:12;1.35;;;0.75;;
42478;SDS011;28110;47.080;9.476;2022-12-18T07:43:38;1.05;;;0.45;;
42478;SDS011;28110;47.080;9.476;2022-12-18T07:46:05;0.83;;;0.50;;
42478;SDS011;28110;47.080;9.476;2022-12-18T07:48:32;1.60;;;0.50;;
42478;SDS011;28110;47.080;9.476;2022-12-18T07:50:58;1.95;;;0.52;;
42478;SDS011;28110;47.080;9.476;2022-12-18T07:53:27;1.10;;;0.50;;
42478;SDS011;28110;47.080;9.476;2022-12-18T07:56:00;1.33;;;0.40;;
42478;SDS011;28110;47.080;9.476;2022-12-18T07:58:30;1.45;;;0.60;;
42478;SDS011;28110;47.080;9.476;2022-12-18T08:01:05;1.40;;;0.70;;
42478;SDS011;28110;47.080;9.476;2022-12-18T08:03:32;2.22;;;0.93;;
42478;SDS011;28110;47.080;9.476;2022-12-18T08:05:59;1.17;;;0.60;;
42478;SDS011;28110;47.080;9.476;2022-12-18T08:08:29;0.90;;;0.45;;
42478;SDS011;28110;47.080;9.476;2022-12-18T08:10:55;1.77;;;0.60;;
42478;SDS011;28110;47.080;9.476;2022-12-18T08:13:22;1.30;;;0.50;;
42478;SDS011;28110;47.080;9.476;2022-12-18T08:15:57;1.48;;;0.40;;
42478;SDS011;28110;47.080;9.476;2022-12-18T08:18:41;6.55;;;1.75;;
42478;SDS011;28110;47.080;9.476;2022-12-18T08:21:09;4.80;;;1.03;;
42478;SDS011;28110;47.080;9.476;2022-12-18T08:23:36;1.40;;;0.60;;
42478;SDS011;28110;47.080;9.476;2022-12-18T08:26:02;1.50;;;0.60;;
42478;SDS011;28110;47.080;9.476;2022-12-18T08:28:28;1.63;;;0.88;;
42478;SDS011;28110;47.080;9.476;2022-12-18T08:30:53;3.30;;;1.00;;
42478;SDS011;28110;47.080;9.476;2022-12-18T08:33:19;2.23;;;0.80;;
42478;SDS011;28110;47.080;9.476;2022-12-18T08:35:44;16.35;;;3.28;;
42478;SDS011;28110;47.080;9.476;2022-12-18T08:38:10;0.97;;;0.73;;
42478;SDS011;28110;47.080;9.476;2022-12-18T08:40:35;1.80;;;1.00;;
42478;SDS011;28110;47.080;9.476;2022-12-18T08:43:01;3.97;;;0.70;;
42478;SDS011;28110;47.080;9.476;2022-12-18T08:45:45;5.93;;;1.00;;
42478;SDS011;28110;47.080;9.476;2022-12-18T08:48:11;2.00;;;0.50;;
42478;SDS011;28110;47.080;9.476;2022-12-18T08:50:36;1.77;;;0.50;;
42478;SDS011;28110;47.080;9.476;2022-12-18T08:53:02;1.97;;;0.60;;
42478;SDS011;28110;47.080;9.476;2022-12-18T08:55:28;1.90;;;0.68;;
42478;SDS011;28110;47.080;9.476;2022-12-18T08:57:53;1.73;;;0.70;;
42478;SDS011;28110;47.080;9.476;2022-12-18T09:00:19;2.50;;;0.60;;
42478;SDS011;28110;47.080;9.476;2022-12-18T09:02:45;1.35;;;0.50;;
42478;SDS011;28110;47.080;9.476;2022-12-18T09:05:10;1.95;;;0.60;;
42478;SDS011;28110;47.080;9.476;2022-12-18T09:07:36;8.13;;;2.03;;
42478;SDS011;28110;47.080;9.476;2022-12-18T09:10:02;34.65;;;8.95;;
42478;SDS011;28110;47.080;9.476;2022-12-18T09:12:28;26.48;;;7.07;;
42478;SDS011;28110;47.080;9.476;2022-12-18T09:14:53;1.95;;;0.80;;
42478;SDS011;28110;47.080;9.476;2022-12-18T09:17:19;2.77;;;1.40;;
42478;SDS011;28110;47.080;9.476;2022-12-18T09:19:44;1.13;;;0.70;;
42478;SDS011;28110;47.080;9.476;2022-12-18T09:22:10;1.10;;;0.73;;
42478;SDS011;28110;47.080;9.476;2022-12-18T09:24:36;1.23;;;0.60;;
42478;SDS011;28110;47.080;9.476;2022-12-18T09:27:01;1.20;;;0.60;;
42478;SDS011;28110;47.080;9.476;2022-12-18T09:29:27;1.67;;;0.57;;
42478;SDS011;28110;47.080;9.476;2022-12-18T09:31:53;2.03;;;0.70;;
42478;SDS011;28110;47.080;9.476;2022-12-18T09:34:19;1.40;;;0.70;;
42478;SDS011;28110;47.080;9.476;2022-12-18T09:36:46;2.78;;;0.73;;
42478;SDS011;28110;47.080;9.476;2022-12-18T09:39:12;1.65;;;0.75;;
42478;SDS011;28110;47.080;9.476;2022-12-18T09:41:39;1.10;;;0.63;;
42478;SDS011;28110;47.080;9.476;2022-12-18T09:44:24;0.88;;;0.60;;
42478;SDS011;28110;47.080;9.476;2022-12-18T09:46:59;0.80;;;0.43;;
42478;SDS011;28110;47.080;9.476;2022-12-18T09:49:32;1.33;;;0.40;;
42478;SDS011;28110;47.080;9.476;2022-12-18T09:52:08;2.20;;;0.57;;
42478;SDS011;28110;47.080;9.476;2022-12-18T09:54:46;2.20;;;0.70;;
42478;SDS011;28110;47.080;9.476;2022-12-18T09:57:25;0.90;;;0.55;;
42478;SDS011;28110;47.080;9.476;2022-12-18T09:59:58;2.10;;;0.63;;
42478;SDS011;28110;47.080;9.476;2022-12-18T10:02:30;2.38;;;0.60;;
42478;SDS011;28110;47.080;9.476;2022-12-18T10:05:06;2.13;;;0.70;;
42478;SDS011;28110;47.080;9.476;2022-12-18T10:07:43;1.30;;;0.53;;
42478;SDS011;28110;47.080;9.476;2022-12-18T10:13:07;2.55;;;0.75;;
42478;SDS011;28110;47.080;9.476;2022-12-18T10:15:56;5.22;;;0.70;;
42478;SDS011;28110;47.080;9.476;2022-12-18T10:21:34;27.10;;;7.20;;
42478;SDS011;28110;47.080;9.476;2022-12-18T10:26:49;4.53;;;1.90;;
42478;SDS011;28110;47.080;9.476;2022-12-18T10:29:15;4.40;;;1.13;;
42478;SDS011;28110;47.080;9.476;2022-12-18T10:31:42;2.72;;;0.80;;
42478;SDS011;28110;47.080;9.476;2022-12-18T10:34:11;22.80;;;5.53;;
42478;SDS011;28110;47.080;9.476;2022-12-18T10:36:40;19.85;;;3.88;;
42478;SDS011;28110;47.080;9.476;2022-12-18T10:39:17;8.93;;;1.83;;
42478;SDS011;28110;47.080;9.476;2022-12-18T10:41:47;43.40;;;3.33;;
42478;SDS011;28110;47.080;9.476;2022-12-18T10:46:45;7.90;;;3.55;;
42478;SDS011;28110;47.080;9.476;2022-12-18T10:49:24;2.10;;;1.05;;
42478;SDS011;28110;47.080;9.476;2022-12-18T10:52:03;2.72;;;0.98;;
42478;SDS011;28110;47.080;9.476;2022-12-18T10:54:45;3.72;;;1.10;;
42478;SDS011;28110;47.080;9.476;2022-12-18T10:57:15;3.57;;;1.13;;
42478;SDS011;28110;47.080;9.476;2022-12-18T11:02:48;7.03;;;3.13;;
42478;SDS011;28110;47.080;9.476;2022-12-18T11:07:49;11.27;;;6.20;;
42478;SDS011;28110;47.080;9.476;2022-12-18T11:10:19;12.43;;;6.13;;
42478;SDS011;28110;47.080;9.476;2022-12-18T11:12:46;11.23;;;5.20;;
42478;SDS011;28110;47.080;9.476;2022-12-18T11:15:20;14.07;;;5.28;;
42478;SDS011;28110;47.080;9.476;2022-12-18T11:17:50;11.38;;;4.20;;
42478;SDS011;28110;47.080;9.476;2022-12-18T11:20:34;11.47;;;5.73;;
42478;SDS011;28110;47.080;9.476;2022-12-18T11:23:01;12.38;;;6.40;;
42478;SDS011;28110;47.080;9.476;2022-12-18T11:25:30;13.50;;;6.57;;
42478;SDS011;28110;47.080;9.476;2022-12-18T11:27:59;11.02;;;6.03;;
42478;SDS011;28110;47.080;9.476;2022-12-18T11:30:28;11.25;;;5.25;;
42478;SDS011;28110;47.080;9.476;2022-12-18T11:32:55;10.00;;;5.43;;
42478;SDS011;28110;47.080;9.476;2022-12-18T11:35:40;19.52;;;7.13;;
42478;SDS011;28110;47.080;9.476;2022-12-18T11:38:37;11.85;;;6.13;;
42478;SDS011;28110;47.080;9.476;2022-12-18T11:41:07;21.77;;;6.40;;
42478;SDS011;28110;47.080;9.476;2022-12-18T11:44:50;13.15;;;6.32;;
42478;SDS011;28110;47.080;9.476;2022-12-18T11:47:38;18.30;;;6.50;;
42478;SDS011;28110;47.080;9.476;2022-12-18T11:50:25;12.57;;;6.00;;
42478;SDS011;28110;47.080;9.476;2022-12-18T11:52:54;13.40;;;6.97;;
42478;SDS011;28110;47.080;9.476;2022-12-18T12:01:28;17.63;;;8.52;;
42478;SDS011;28110;47.080;9.476;2022-12-18T12:06:53;17.88;;;7.97;;
42478;SDS011;28110;47.080;9.476;2022-12-18T12:12:48;14.63;;;8.20;;
42478;SDS011;28110;47.080;9.476;2022-12-18T12:26:30;17.10;;;8.38;;
42478;SDS011;28110;47.080;9.476;2022-12-18T12:29:13;17.10;;;8.40;;
42478;SDS011;28110;47.080;9.476;2022-12-18T12:35:58;14.63;;;8.07;;
42478;SDS011;28110;47.080;9.476;2022-12-18T12:40:58;16.27;;;8.50;;
42478;SDS011;28110;47.080;9.476;2022-12-18T12:43:35;19.27;;;8.93;;
42478;SDS011;28110;47.080;9.476;2022-12-18T12:46:08;19.27;;;8.68;;
42478;SDS011;28110;47.080;9.476;2022-12-18T12:51:20;20.57;;;9.93;;
42478;SDS011;28110;47.080;9.476;2022-12-18T12:53:49;18.92;;;8.93;;
42478;SDS011;28110;47.080;9.476;2022-12-18T12:56:15;22.73;;;9.60;;
42478;SDS011;28110;47.080;9.476;2022-12-18T13:01:28;19.58;;;9.93;;
42478;SDS011;28110;47.080;9.476;2022-12-18T13:04:22;19.50;;;10.17;;
42478;SDS011;28110;47.080;9.476;2022-12-18T13:07:00;23.55;;;10.45;;
42478;SDS011;28110;47.080;9.476;2022-12-18T13:20:38;24.38;;;10.23;;
42478;SDS011;28110;47.080;9.476;2022-12-18T13:25:52;20.52;;;10.15;;
42478;SDS011;28110;47.080;9.476;2022-12-18T13:31:15;27.20;;;10.38;;
42478;SDS011;28110;47.080;9.476;2022-12-18T13:36:45;20.63;;;9.80;;
42478;SDS011;28110;47.080;9.476;2022-12-18T13:41:42;22.80;;;10.07;;
42478;SDS011;28110;47.080;9.476;2022-12-18T13:44:13;27.38;;;11.63;;
42478;SDS011;28110;47.080;9.476;2022-12-18T13:46:49;26.67;;;11.60;;
42478;SDS011;28110;47.080;9.476;2022-12-18T13:49:21;27.83;;;11.00;;
42478;SDS011;28110;47.080;9.476;2022-12-18T13:51:54;29.25;;;11.18;;
42478;SDS011;28110;47.080;9.476;2022-12-18T13:57:04;28.25;;;12.55;;
42478;SDS011;28110;47.080;9.476;2022-12-18T13:59:38;29.05;;;12.07;;
42478;SDS011;28110;47.080;9.476;2022-12-18T14:02:26;24.93;;;11.23;;
42478;SDS011;28110;47.080;9.476;2022-12-18T14:04:52;30.20;;;12.52;;
42478;SDS011;28110;47.080;9.476;2022-12-18T14:07:22;28.02;;;13.27;;
42478;SDS011;28110;47.080;9.476;2022-12-18T14:09:51;30.60;;;12.30;;
42478;SDS011;28110;47.080;9.476;2022-12-18T14:12:20;26.50;;;12.13;;
42478;SDS011;28110;47.080;9.476;2022-12-18T14:15:50;31.07;;;11.87;;
42478;SDS011;28110;47.080;9.476;2022-12-18T14:18:23;25.75;;;11.25;;
42478;SDS011;28110;47.080;9.476;2022-12-18T14:20:59;33.17;;;12.18;;
42478;SDS011;28110;47.080;9.476;2022-12-18T14:23:27;28.13;;;11.82;;
42478;SDS011;28110;47.080;9.476;2022-12-18T14:25:53;29.75;;;12.63;;
42478;SDS011;28110;47.080;9.476;2022-12-18T14:28:19;31.87;;;12.50;;
42478;SDS011;28110;47.080;9.476;2022-12-18T14:30:46;27.05;;;11.98;;
42478;SDS011;28110;47.080;9.476;2022-12-18T14:35:58;27.90;;;11.52;;
42478;SDS011;28110;47.080;9.476;2022-12-18T14:41:05;34.50;;;12.90;;
42478;SDS011;28110;47.080;9.476;2022-12-18T14:43:35;30.45;;;12.15;;
42478;SDS011;28110;47.080;9.476;2022-12-18T14:46:03;34.50;;;12.87;;
42478;SDS011;28110;47.080;9.476;2022-12-18T14:48:38;39.10;;;13.80;;
42478;SDS011;28110;47.080;9.476;2022-12-18T14:51:20;34.63;;;13.68;;
42478;SDS011;28110;47.080;9.476;2022-12-18T14:53:51;33.83;;;13.75;;
42478;SDS011;28110;47.080;9.476;2022-12-18T14:56:25;28.00;;;13.23;;
42478;SDS011;28110;47.080;9.476;2022-12-18T15:04:25;31.58;;;13.07;;
42478;SDS011;28110;47.080;9.476;2022-12-18T15:07:33;33.03;;;12.57;;
42478;SDS011;28110;47.080;9.476;2022-12-18T15:10:09;29.20;;;12.55;;
42478;SDS011;28110;47.080;9.476;2022-12-18T15:12:44;31.87;;;12.30;;
42478;SDS011;28110;47.080;9.476;2022-12-18T15:20:25;38.85;;;15.23;;
42478;SDS011;28110;47.080;9.476;2022-12-18T15:22:50;35.77;;;14.40;;
42478;SDS011;28110;47.080;9.476;2022-12-18T15:25:27;35.45;;;13.57;;
42478;SDS011;28110;47.080;9.476;2022-12-18T15:27:57;33.97;;;12.98;;
42478;SDS011;28110;47.080;9.476;2022-12-18T15:30:24;32.63;;;13.53;;
42478;SDS011;28110;47.080;9.476;2022-12-18T15:32:50;38.20;;;13.95;;
42478;SDS011;28110;47.080;9.476;2022-12-18T15:35:21;36.90;;;14.02;;
42478;SDS011;28110;47.080;9.476;2022-12-18T15:37:49;35.73;;;12.73;;
42478;SDS011;28110;47.080;9.476;2022-12-18T15:40:25;29.23;;;12.48;;
42478;SDS011;28110;47.080;9.476;2022-12-18T15:42:52;34.88;;;13.13;;
42478;SDS011;28110;47.080;9.476;2022-12-18T15:45:38;34.15;;;13.48;;
42478;SDS011;28110;47.080;9.476;2022-12-18T15:48:15;31.70;;;13.70;;
42478;SDS011;28110;47.080;9.476;2022-12-18T15:50:45;34.85;;;13.75;;
42478;SDS011;28110;47.080;9.476;2022-12-18T15:53:11;33.85;;;13.15;;
42478;SDS011;28110;47.080;9.476;2022-12-18T15:55:36;36.80;;;14.03;;
42478;SDS011;28110;47.080;9.476;2022-12-18T15:58:21;29.90;;;11.68;;
42478;SDS011;28110;47.080;9.476;2022-12-18T16:00:47;34.97;;;13.13;;
42478;SDS011;28110;47.080;9.476;2022-12-18T16:03:12;53.47;;;13.67;;
42478;SDS011;28110;47.080;9.476;2022-12-18T16:05:38;46.22;;;13.80;;
42478;SDS011;28110;47.080;9.476;2022-12-18T16:08:03;47.87;;;13.60;;
42478;SDS011;28110;47.080;9.476;2022-12-18T16:10:29;36.83;;;13.50;;
42478;SDS011;28110;47.080;9.476;2022-12-18T16:12:54;58.20;;;14.55;;
42478;SDS011;28110;47.080;9.476;2022-12-18T16:15:20;42.73;;;14.47;;
42478;SDS011;28110;47.080;9.476;2022-12-18T16:17:46;51.93;;;14.57;;
42478;SDS011;28110;47.080;9.476;2022-12-18T16:20:13;40.40;;;14.32;;
42478;SDS011;28110;47.080;9.476;2022-12-18T16:22:43;61.70;;;16.85;;
42478;SDS011;28110;47.080;9.476;2022-12-18T16:27:46;56.45;;;15.18;;
42478;SDS011;28110;47.080;9.476;2022-12-18T16:30:15;71.97;;;15.50;;
42478;SDS011;28110;47.080;9.476;2022-12-18T16:32:44;48.92;;;14.68;;
42478;SDS011;28110;47.080;9.476;2022-12-18T16:35:11;38.15;;;14.27;;
42478;SDS011;28110;47.080;9.476;2022-12-18T16:37:38;40.63;;;14.18;;
42478;SDS011;28110;47.080;9.476;2022-12-18T16:40:04;43.57;;;15.40;;
42478;SDS011;28110;47.080;9.476;2022-12-18T16:42:33;50.17;;;16.88;;